Time;durP1;ratioP1;P1;durP2;ratioP2;P2;SDS_P1;SDS_P2;PMS_P1;PMS_P2;Temp;Humidity;BMP_temperature;BMP_pressure;BME280_temperature;BME280_humidity;BME280_pressure;Samples;Min_cycle;Max_cycle;Signal;HPM_P1;HPM_P2
2023/09/27 00:01:59;;;;;;;3.7;2.4;;;;;;;;;;;;;
2023/09/27 00:04:23;;;;;;;3.5;2.2;;;;;;;;;;;;;
2023/09/27 00:06:48;;;;;;;4.2;2.2;;;;;;;;;;;;;
2023/09/27 00:09:14;;;;;;;3.7;2.5;;;;;;;;;;;;;
2023/09/27 00:11:38;;;;;;;2.4;2.2;;;;;;;;;;;;;
2023/09/27 00:14:04;;;;;;;2.4;2;;;;;;;;;;;;;
2023/09/27 00:16:30;;;;;;;2.5;2.2;;;;;;;;;;;;;
2023/09/27 00:18:55;;;;;;;2.9;2.4;;;;;;;;;;;;;
2023/09/27 00:21:20;;;;;;;2.3;2.1;;;;;;;;;;;;;
2023/09/27 00:23:45;;;;;;;3.6;2.1;;;;;;;;;;;;;
2023/09/27 00:26:10;;;;;;;2.4;2.1;;;;;;;;;;;;;
2023/09/27 00:28:35;;;;;;;2.8;2;;;;;;;;;;;;;
2023/09/27 00:31:04;;;;;;;2.2;2;;;;;;;;;;;;;
2023/09/27 00:33:29;;;;;;;3.3;2.3;;;;;;;;;;;;;
2023/09/27 00:35:54;;;;;;;2.7;2.2;;;;;;;;;;;;;
2023/09/27 00:38:19;;;;;;;2.6;2.1;;;;;;;;;;;;;
2023/09/27 00:40:44;;;;;;;2.4;2.2;;;;;;;;;;;;;
2023/09/27 00:43:09;;;;;;;3;2.2;;;;;;;;;;;;;
2023/09/27 00:45:34;;;;;;;5.1;2.2;;;;;;;;;;;;;
2023/09/27 00:47:59;;;;;;;2.8;2.2;;;;;;;;;;;;;
2023/09/27 00:50:25;;;;;;;2.7;2.2;;;;;;;;;;;;;
2023/09/27 00:52:50;;;;;;;3.1;2.1;;;;;;;;;;;;;
2023/09/27 00:55:15;;;;;;;2.2;2;;;;;;;;;;;;;
2023/09/27 00:57:40;;;;;;;2.2;2;;;;;;;;;;;;;
2023/09/27 01:00:10;;;;;;;2.4;2.2;;;;;;;;;;;;;
2023/09/27 01:02:30;;;;;;;2;1.8;;;;;;;;;;;;;
2023/09/27 01:04:55;;;;;;;3.9;2.2;;;;;;;;;;;;;
2023/09/27 01:07:20;;;;;;;2.2;2;;;;;;;;;;;;;
2023/09/27 01:09:46;;;;;;;2.5;2.3;;;;;;;;;;;;;
2023/09/27 01:12:11;;;;;;;3;2.3;;;;;;;;;;;;;
2023/09/27 01:14:37;;;;;;;3.8;2.2;;;;;;;;;;;;;
2023/09/27 01:17:02;;;;;;;2.3;2.1;;;;;;;;;;;;;
2023/09/27 01:19:27;;;;;;;2.6;2.3;;;;;;;;;;;;;
2023/09/27 01:21:52;;;;;;;3.5;2.4;;;;;;;;;;;;;
2023/09/27 01:24:17;;;;;;;4.4;2;;;;;;;;;;;;;
2023/09/27 01:26:42;;;;;;;2.5;2.1;;;;;;;;;;;;;
2023/09/27 01:29:08;;;;;;;2.3;2.1;;;;;;;;;;;;;
2023/09/27 01:31:34;;;;;;;2.2;2;;;;;;;;;;;;;
2023/09/27 01:33:59;;;;;;;3.9;2.4;;;;;;;;;;;;;
2023/09/27 01:36:24;;;;;;;3.4;2.5;;;;;;;;;;;;;
2023/09/27 01:38:49;;;;;;;2.7;2.3;;;;;;;;;;;;;
2023/09/27 01:41:14;;;;;;;2.4;2.2;;;;;;;;;;;;;
2023/09/27 01:43:39;;;;;;;2.4;2;;;;;;;;;;;;;
2023/09/27 01:46:04;;;;;;;2.5;2.1;;;;;;;;;;;;;
2023/09/27 01:48:30;;;;;;;2.7;2;;;;;;;;;;;;;
2023/09/27 01:50:55;;;;;;;2.8;2.4;;;;;;;;;;;;;
2023/09/27 01:53:20;;;;;;;2.7;2.2;;;;;;;;;;;;;
2023/09/27 01:55:47;;;;;;;4.2;2.1;;;;;;;;;;;;;
2023/09/27 01:58:10;;;;;;;2.7;2.3;;;;;;;;;;;;;
2023/09/27 02:00:36;;;;;;;2.4;2.2;;;;;;;;;;;;;
2023/09/27 02:03:01;;;;;;;2.4;2;;;;;;;;;;;;;
2023/09/27 02:05:27;;;;;;;2.2;2;;;;;;;;;;;;;
2023/09/27 02:07:52;;;;;;;2.9;2.1;;;;;;;;;;;;;
2023/09/27 02:10:17;;;;;;;2.8;2.2;;;;;;;;;;;;;
2023/09/27 02:12:42;;;;;;;2.2;2;;;;;;;;;;;;;
2023/09/27 02:15:07;;;;;;;2.5;2.3;;;;;;;;;;;;;
2023/09/27 02:17:32;;;;;;;2.7;2.3;;;;;;;;;;;;;
2023/09/27 02:19:57;;;;;;;4.6;2.4;;;;;;;;;;;;;
2023/09/27 02:22:23;;;;;;;2.8;2.2;;;;;;;;;;;;;
2023/09/27 02:24:48;;;;;;;2.8;2.5;;;;;;;;;;;;;
2023/09/27 02:27:14;;;;;;;3.9;2.4;;;;;;;;;;;;;
2023/09/27 02:29:38;;;;;;;3.4;2.6;;;;;;;;;;;;;
2023/09/27 02:32:03;;;;;;;4;2.6;;;;;;;;;;;;;
2023/09/27 02:34:29;;;;;;;5.6;2.8;;;;;;;;;;;;;
2023/09/27 02:36:54;;;;;;;3.4;2.6;;;;;;;;;;;;;
2023/09/27 02:39:20;;;;;;;4.5;3.1;;;;;;;;;;;;;
2023/09/27 02:41:45;;;;;;;3.6;2.7;;;;;;;;;;;;;
2023/09/27 02:44:11;;;;;;;3.9;2.6;;;;;;;;;;;;;
2023/09/27 02:46:36;;;;;;;3.3;2.3;;;;;;;;;;;;;
2023/09/27 02:49:01;;;;;;;2.9;2.4;;;;;;;;;;;;;
2023/09/27 02:51:26;;;;;;;3.4;2.7;;;;;;;;;;;;;
2023/09/27 02:53:51;;;;;;;3.4;2.3;;;;;;;;;;;;;
2023/09/27 02:56:17;;;;;;;4;2.5;;;;;;;;;;;;;
2023/09/27 02:58:42;;;;;;;4.7;2.5;;;;;;;;;;;;;
2023/09/27 03:01:07;;;;;;;2.8;2.2;;;;;;;;;;;;;
2023/09/27 03:03:32;;;;;;;2.5;2.2;;;;;;;;;;;;;
2023/09/27 03:05:57;;;;;;;3.1;2.3;;;;;;;;;;;;;
2023/09/27 03:08:22;;;;;;;3.4;2.2;;;;;;;;;;;;;
2023/09/27 03:10:48;;;;;;;2.9;2.1;;;;;;;;;;;;;
2023/09/27 03:13:12;;;;;;;3.4;2.2;;;;;;;;;;;;;
2023/09/27 03:15:40;;;;;;;2.9;2.4;;;;;;;;;;;;;
2023/09/27 03:18:05;;;;;;;4;2.2;;;;;;;;;;;;;
2023/09/27 03:20:32;;;;;;;5.3;2.3;;;;;;;;;;;;;
2023/09/27 03:22:56;;;;;;;2.8;2.4;;;;;;;;;;;;;
2023/09/27 03:25:22;;;;;;;5;2.5;;;;;;;;;;;;;
2023/09/27 03:27:48;;;;;;;3.3;2.5;;;;;;;;;;;;;
2023/09/27 03:30:15;;;;;;;4.9;2.6;;;;;;;;;;;;;
2023/09/27 03:32:40;;;;;;;3.3;2.9;;;;;;;;;;;;;
2023/09/27 03:35:07;;;;;;;3.5;2.7;;;;;;;;;;;;;
2023/09/27 03:37:32;;;;;;;3.6;2.6;;;;;;;;;;;;;
2023/09/27 03:39:56;;;;;;;3.7;2.9;;;;;;;;;;;;;
2023/09/27 03:42:22;;;;;;;3.6;2.5;;;;;;;;;;;;;
2023/09/27 03:44:49;;;;;;;3.8;2.3;;;;;;;;;;;;;
2023/09/27 03:47:13;;;;;;;3.1;2.5;;;;;;;;;;;;;
2023/09/27 03:49:39;;;;;;;2.8;2.3;;;;;;;;;;;;;
2023/09/27 03:52:04;;;;;;;4;2.2;;;;;;;;;;;;;
2023/09/27 03:54:30;;;;;;;3.4;2.7;;;;;;;;;;;;;
2023/09/27 03:56:55;;;;;;;2.2;2;;;;;;;;;;;;;
2023/09/27 03:59:24;;;;;;;2.9;2.4;;;;;;;;;;;;;
2023/09/27 04:02:33;;;;;;;3.4;2.5;;;;;;;11.7;100;942.6584;;;;
2023/09/27 04:04:58;;;;;;;2.8;2.2;;;;;;;11.65;100;942.673;;;;
2023/09/27 04:07:23;;;;;;;2.4;2.2;;;;;;;11.58;100;942.7164;;;;
2023/09/27 04:09:54;;;;;;;3.9;2.3;;;;;;;11.74;100;942.6636;;;;
2023/09/27 04:12:22;;;;;;;3;2.2;;;;;;;11.83;100;942.6797;;;;
2023/09/27 04:14:47;;;;;;;5.3;2.4;;;;;;;11.93;100;942.6649;;;;
2023/09/27 04:17:19;;;;;;;2.7;2.1;;;;;;;11.99;100;942.6664;;;;
2023/09/27 04:19:48;;;;;;;3.6;2.3;;;;;;;11.97;99.12402;942.6996;;;;
2023/09/27 04:22:13;;;;;;;2.6;2;;;;;;;11.91;98.7666;942.7014;;;;
2023/09/27 04:24:41;;;;;;;3;2.1;;;;;;;11.89;99.01367;942.7817;;;;
2023/09/27 04:27:06;;;;;;;4.5;2.1;;;;;;;11.74;100;942.8215;;;;
2023/09/27 04:29:31;;;;;;;2.2;2;;;;;;;11.7;100;942.8954;;;;
2023/09/27 04:31:59;;;;;;;4.7;2.4;;;;;;;11.7;100;942.8738;;;;
2023/09/27 04:34:24;;;;;;;3.2;2.4;;;;;;;11.61;100;942.9469;;;;
2023/09/27 04:36:53;;;;;;;3.1;2.7;;;;;;;11.61;100;942.9601;;;;
2023/09/27 04:39:27;;;;;;;2.7;2.4;;;;;;;11.49;100;942.9953;;;;
2023/09/27 04:41:49;;;;;;;2.8;2.4;;;;;;;11.34;100;943.0311;;;;
2023/09/27 04:44:16;;;;;;;3.6;2.5;;;;;;;11.33;100;943.0454;;;;
2023/09/27 04:46:41;;;;;;;4.6;2.6;;;;;;;11.35;100;943.0393;;;;
2023/09/27 04:49:10;;;;;;;4.7;2.7;;;;;;;11.43;100;943.0701;;;;
2023/09/27 04:51:35;;;;;;;3.3;2.4;;;;;;;11.47;100;943.1401;;;;
2023/09/27 04:54:03;;;;;;;2.9;2.2;;;;;;;11.56;99.0752;943.1867;;;;
2023/09/27 04:56:26;;;;;;;3.3;2.2;;;;;;;11.61;99.03027;943.2101;;;;
2023/09/27 04:58:54;;;;;;;2.7;2.3;;;;;;;11.53;99.16016;943.247;;;;
2023/09/27 05:01:20;;;;;;;4.5;2.4;;;;;;;11.33;100;943.3427;;;;
2023/09/27 05:03:51;;;;;;;3;2.5;;;;;;;11.35;100;943.2937;;;;
2023/09/27 05:06:20;;;;;;;3;2.2;;;;;;;11.46;100;943.3513;;;;
2023/09/27 05:08:44;;;;;;;3.8;2.8;;;;;;;11.48;99.33301;943.3333;;;;
2023/09/27 05:11:12;;;;;;;5.3;3.6;;;;;;;11.43;98.87695;943.3174;;;;
2023/09/27 05:13:37;;;;;;;4.7;3.2;;;;;;;11.55;98.42285;943.3127;;;;
2023/09/27 05:16:04;;;;;;;6.2;3.5;;;;;;;11.51;99.12207;943.2826;;;;
2023/09/27 05:18:30;;;;;;;5.3;2.7;;;;;;;11.52;99.34375;943.274;;;;
2023/09/27 05:21:00;;;;;;;5;2.7;;;;;;;11.59;98.83203;943.2191;;;;
2023/09/27 05:23:23;;;;;;;5.1;2.5;;;;;;;11.59;98.63672;943.2972;;;;
2023/09/27 05:25:52;;;;;;;4.5;2.8;;;;;;;11.51;99.05371;943.2316;;;;
2023/09/27 05:28:24;;;;;;;6.4;2.7;;;;;;;11.5;99.00586;943.3782;;;;
2023/09/27 05:30:52;;;;;;;4.3;3;;;;;;;11.5;99.1084;943.4252;;;;
2023/09/27 05:33:18;;;;;;;5.2;3.5;;;;;;;11.45;99.54199;943.4292;;;;
2023/09/27 05:35:42;;;;;;;4.8;3.3;;;;;;;11.46;99.19141;943.4964;;;;
2023/09/27 05:38:09;;;;;;;5.1;2.6;;;;;;;11.41;99.26172;943.5022;;;;
2023/09/27 05:40:35;;;;;;;6.2;2.7;;;;;;;11.37;100;943.4813;;;;
2023/09/27 05:43:05;;;;;;;4.3;2.6;;;;;;;11.43;100;943.4458;;;;
2023/09/27 05:45:35;;;;;;;3.5;2.4;;;;;;;11.44;100;943.4444;;;;
2023/09/27 05:48:05;;;;;;;4;2.6;;;;;;;11.4;100;943.4849;;;;
2023/09/27 05:50:29;;;;;;;3.5;2.7;;;;;;;11.58;100;943.4447;;;;
2023/09/27 05:53:00;;;;;;;2.8;2.5;;;;;;;11.9;100;943.4745;;;;
2023/09/27 05:55:26;;;;;;;4.1;2.3;;;;;;;12.06;100;943.5351;;;;
2023/09/27 05:57:50;;;;;;;3.1;2.2;;;;;;;12.43;99.31934;943.4911;;;;
2023/09/27 06:00:23;;;;;;;4.4;2.4;;;;;;;12.78;97.76074;943.5964;;;;
2023/09/27 06:02:47;;;;;;;3.9;2.3;;;;;;;13.13;96.10352;943.6272;;;;
2023/09/27 06:05:16;;;;;;;2.9;2.2;;;;;;;13.41;93.38574;943.5988;;;;
2023/09/27 06:07:40;;;;;;;5.5;2.4;;;;;;;13.44;91.25391;943.5913;;;;
2023/09/27 06:10:10;;;;;;;3.7;2.4;;;;;;;13.36;91.77637;943.5864;;;;
2023/09/27 06:12:35;;;;;;;5.4;2.6;;;;;;;13.33;92.23047;943.6262;;;;
2023/09/27 06:15:01;;;;;;;4.9;2.9;;;;;;;13.37;92.55957;943.6017;;;;
2023/09/27 06:17:27;;;;;;;5.3;2.8;;;;;;;13.49;93.32227;943.6284;;;;
2023/09/27 06:19:53;;;;;;;6;3.5;;;;;;;13.53;93.47949;943.5575;;;;
2023/09/27 06:22:22;;;;;;;10.3;5.6;;;;;;;13.85;93.82422;943.6344;;;;
2023/09/27 06:24:43;;;;;;;7.1;3;;;;;;;14.01;92.3623;943.6785;;;;
2023/09/27 06:27:13;;;;;;;6.2;2.7;;;;;;;13.99;91.0127;943.6639;;;;
2023/09/27 06:29:42;;;;;;;4.6;2.6;;;;;;;13.92;89.84668;943.6556;;;;
2023/09/27 06:32:07;;;;;;;3.5;2.3;;;;;;;13.94;90.47168;943.7021;;;;
2023/09/27 06:34:35;;;;;;;7.4;2.4;;;;;;;14.06;90.16211;943.687;;;;
2023/09/27 06:37:00;;;;;;;3.6;2.1;;;;;;;14.05;89.84961;943.7014;;;;
2023/09/27 06:39:25;;;;;;;2.8;2;;;;;;;14.13;90.29395;943.6841;;;;
2023/09/27 06:41:55;;;;;;;4.2;2.2;;;;;;;14.32;89.27148;943.6475;;;;
2023/09/27 06:44:21;;;;;;;2.9;2.1;;;;;;;14.25;89.30469;943.6489;;;;
2023/09/27 06:46:49;;;;;;;5.9;2.4;;;;;;;14.29;90.38379;943.6354;;;;
2023/09/27 06:49:14;;;;;;;4.6;2.3;;;;;;;14.31;90.07813;943.5914;;;;
2023/09/27 06:51:39;;;;;;;3.9;2.2;;;;;;;14.41;89.97168;943.5958;;;;
2023/09/27 06:54:05;;;;;;;3.3;2.3;;;;;;;14.6;89.34082;943.552;;;;
2023/09/27 06:56:29;;;;;;;4.3;2.1;;;;;;;14.69;88.71387;943.6479;;;;
2023/09/27 06:58:56;;;;;;;5.1;2;;;;;;;15.11;87.51953;943.6395;;;;
2023/09/27 07:01:21;;;;;;;4.4;2.4;;;;;;;15.54;85.13281;943.5621;;;;
2023/09/27 07:03:48;;;;;;;4.3;2;;;;;;;15.99;83.625;943.5822;;;;
2023/09/27 07:06:11;;;;;;;3.1;2.1;;;;;;;16.43;81.19824;943.5718;;;;
2023/09/27 07:08:37;;;;;;;4.1;2.2;;;;;;;16.78;79.98926;943.5737;;;;
2023/09/27 07:11:02;;;;;;;2.6;1.9;;;;;;;16.74;78.96191;943.5185;;;;
2023/09/27 07:13:28;;;;;;;2.2;1.9;;;;;;;16.34;80.13965;943.555;;;;
2023/09/27 07:15:54;;;;;;;2.3;1.9;;;;;;;16.18;81.2666;943.577;;;;
2023/09/27 07:18:19;;;;;;;5.1;2.4;;;;;;;16.63;80.14453;943.4963;;;;
2023/09/27 07:20:43;;;;;;;3.8;2;;;;;;;16.45;79.50977;943.517;;;;
2023/09/27 07:23:14;;;;;;;2.3;1.9;;;;;;;16.55;80.27246;943.5414;;;;
2023/09/27 07:25:37;;;;;;;5.4;1.9;;;;;;;16.57;80.33203;943.4601;;;;
2023/09/27 07:28:00;;;;;;;2.2;1.7;;;;;;;16.26;81.54785;943.4686;;;;
2023/09/27 07:30:27;;;;;;;2.3;1.8;;;;;;;16.56;80.92188;943.486;;;;
2023/09/27 07:32:53;;;;;;;6.3;1.9;;;;;;;16.87;80.39941;943.4914;;;;
2023/09/27 07:35:21;;;;;;;5.2;2.1;;;;;;;17.47;77.59668;943.4419;;;;
2023/09/27 07:38:46;;;;;;;2.5;1.8;;;;;;;17.7;75.52441;943.3397;;;;
2023/09/27 07:41:11;;;;;;;3.6;1.7;;;;;;;18.1;74.17676;943.2651;;;;
2023/09/27 07:43:38;;;;;;;3;2;;;;;;;18.1;73.99121;943.3497;;;;
2023/09/27 07:46:06;;;;;;;3.9;1.8;;;;;;;18.36;74.7793;943.209;;;;
2023/09/27 07:48:31;;;;;;;3.1;1.8;;;;;;;18.64;72.50977;943.2434;;;;
2023/09/27 07:50:54;;;;;;;2.1;1.9;;;;;;;19.47;70.9707;943.1859;;;;
2023/09/27 07:53:21;;;;;;;4.7;2.2;;;;;;;20.02;67.47559;943.1284;;;;
2023/09/27 07:55:48;;;;;;;2.2;1.9;;;;;;;19.76;66.15234;943.1208;;;;
2023/09/27 07:58:12;;;;;;;2.7;1.7;;;;;;;19.76;65.84961;943.1467;;;;
2023/09/27 08:00:40;;;;;;;4.2;2;;;;;;;18.84;68.79688;943.0706;;;;
2023/09/27 08:03:04;;;;;;;1.7;1.5;;;;;;;18.87;69.62793;943.1186;;;;
2023/09/27 08:05:31;;;;;;;2.5;1.6;;;;;;;19.25;68.39648;943.0503;;;;
2023/09/27 08:07:55;;;;;;;2.4;1.9;;;;;;;19.75;66.5957;943.058;;;;
2023/09/27 08:10:20;;;;;;;2.5;1.7;;;;;;;20.18;64.6416;943.0389;;;;
2023/09/27 08:12:45;;;;;;;2.1;1.9;;;;;;;20.48;64.96582;943.0005;;;;
2023/09/27 08:15:14;;;;;;;4.9;2.1;;;;;;;20.4;64.73047;942.9839;;;;
2023/09/27 08:17:39;;;;;;;2.3;1.9;;;;;;;20.12;67.41016;942.927;;;;
2023/09/27 08:20:07;;;;;;;3.2;2.1;;;;;;;20.4;66.7041;942.8998;;;;
2023/09/27 08:22:31;;;;;;;3.4;1.8;;;;;;;20.33;66.11035;942.9254;;;;
2023/09/27 08:24:57;;;;;;;2.5;1.9;;;;;;;20.29;66.58301;942.9135;;;;
2023/09/27 08:27:22;;;;;;;3.3;2;;;;;;;20.36;66.92188;942.9344;;;;
2023/09/27 08:29:49;;;;;;;2.8;2.1;;;;;;;20.71;65.25586;942.9441;;;;
2023/09/27 08:32:14;;;;;;;4.6;2;;;;;;;20.86;66.27051;942.9386;;;;
2023/09/27 08:34:42;;;;;;;3.8;1.6;;;;;;;21.49;63.74316;942.8794;;;;
2023/09/27 08:37:07;;;;;;;3.4;2;;;;;;;21.5;61.4502;942.8175;;;;
2023/09/27 08:39:32;;;;;;;3.6;2;;;;;;;21.59;63.54688;942.7755;;;;
2023/09/27 08:41:57;;;;;;;3;1.7;;;;;;;21.74;63.20605;942.822;;;;
2023/09/27 08:44:23;;;;;;;1.7;1.6;;;;;;;21.75;62.59766;942.7203;;;;
2023/09/27 08:46:48;;;;;;;2.8;1.6;;;;;;;22.39;62.20605;942.7339;;;;
2023/09/27 08:49:13;;;;;;;6.8;2.1;;;;;;;22.55;61.0332;942.7115;;;;
2023/09/27 08:51:40;;;;;;;2.4;2;;;;;;;22.51;60.11133;942.66;;;;
2023/09/27 08:54:06;;;;;;;3.3;1.9;;;;;;;22.82;60.21289;942.6389;;;;
2023/09/27 08:56:31;;;;;;;3.5;1.9;;;;;;;22.1;59.03711;942.5285;;;;
2023/09/27 08:58:56;;;;;;;3.1;1.7;;;;;;;22.06;61.04688;942.5881;;;;
2023/09/27 09:01:21;;;;;;;3.3;2;;;;;;;22.02;61.55762;942.5828;;;;
2023/09/27 09:03:50;;;;;;;2.2;1.7;;;;;;;22.4;58.91211;942.5525;;;;
2023/09/27 09:06:18;;;;;;;2.9;1.6;;;;;;;22.05;58.8418;942.4952;;;;
2023/09/27 09:08:43;;;;;;;2.1;1.6;;;;;;;22.29;58.60449;942.5298;;;;
2023/09/27 09:11:08;;;;;;;2.6;1.8;;;;;;;22.13;57.63379;942.4977;;;;
2023/09/27 09:13:33;;;;;;;2.1;1.5;;;;;;;22.28;58.39063;942.4377;;;;
2023/09/27 09:15:58;;;;;;;2.1;1.9;;;;;;;22.25;59.81836;942.4305;;;;
2023/09/27 09:18:25;;;;;;;4;1.9;;;;;;;22.27;61.80371;942.4858;;;;
2023/09/27 09:20:51;;;;;;;2.4;1.8;;;;;;;21.96;64.03516;942.4799;;;;
2023/09/27 09:23:15;;;;;;;3.2;1.9;;;;;;;21.78;66.16406;942.491;;;;
2023/09/27 09:25:40;;;;;;;3.3;1.8;;;;;;;21.88;66.24902;942.5226;;;;
2023/09/27 09:28:07;;;;;;;6.1;2;;;;;;;21.62;64.94531;942.4779;;;;
2023/09/27 09:30:31;;;;;;;2.9;2.2;;;;;;;21.89;64.07129;942.421;;;;
2023/09/27 09:32:58;;;;;;;3.8;2.1;;;;;;;21.65;66.13184;942.535;;;;
2023/09/27 09:35:24;;;;;;;2.7;1.8;;;;;;;21.36;67.01367;942.4772;;;;
2023/09/27 09:37:53;;;;;;;3;2;;;;;;;21.13;68.88477;942.5139;;;;
2023/09/27 09:40:22;;;;;;;3.8;1.7;;;;;;;21.05;70.17188;942.5328;;;;
2023/09/27 09:42:46;;;;;;;4.2;1.9;;;;;;;21.18;70.23828;942.5198;;;;
2023/09/27 09:45:14;;;;;;;5;1.8;;;;;;;21.5;65.50098;942.4423;;;;
2023/09/27 09:47:39;;;;;;;2.3;1.6;;;;;;;21.85;62.57617;942.4578;;;;
2023/09/27 09:50:11;;;;;;;2.1;1.7;;;;;;;21.63;63.88086;942.3621;;;;
2023/09/27 09:52:30;;;;;;;2.3;1.8;;;;;;;21.96;65.13672;942.3557;;;;
2023/09/27 09:54:55;;;;;;;3;1.7;;;;;;;22.05;64.45703;942.3272;;;;
2023/09/27 09:57:22;;;;;;;3.1;2;;;;;;;22.2;63.88086;942.2709;;;;
2023/09/27 09:59:46;;;;;;;2.5;1.9;;;;;;;22.08;67.94238;942.3084;;;;
2023/09/27 10:02:11;;;;;;;2;1.6;;;;;;;21.85;67.10059;942.259;;;;
2023/09/27 10:04:36;;;;;;;2.4;2;;;;;;;21.62;67.3916;942.3103;;;;
2023/09/27 10:07:02;;;;;;;3.4;1.8;;;;;;;21.64;68.60156;942.2541;;;;
2023/09/27 10:09:28;;;;;;;2.4;2.1;;;;;;;21.78;66.37402;942.2131;;;;
2023/09/27 10:11:53;;;;;;;2.1;1.9;;;;;;;21.82;67.7627;942.1641;;;;
2023/09/27 10:14:18;;;;;;;4;1.8;;;;;;;22.3;65.66602;942.1359;;;;
2023/09/27 10:16:48;;;;;;;2.1;1.7;;;;;;;22.11;65.91992;942.1591;;;;
2023/09/27 10:19:13;;;;;;;2.2;1.9;;;;;;;22.07;68.96191;942.0938;;;;
2023/09/27 10:21:37;;;;;;;3.7;1.9;;;;;;;22.23;68.18848;942.0528;;;;
2023/09/27 10:24:04;;;;;;;3.5;2.4;;;;;;;22.34;67.95996;942.0463;;;;
2023/09/27 10:26:27;;;;;;;2.7;2.1;;;;;;;22.18;68.91895;942.0225;;;;
2023/09/27 10:28:55;;;;;;;3.8;2.4;;;;;;;22.38;69.84277;941.9885;;;;
2023/09/27 10:31:20;;;;;;;4.5;3;;;;;;;22.74;67.33887;941.9803;;;;
2023/09/27 10:33:45;;;;;;;4.1;2.4;;;;;;;23.22;66.70703;941.9265;;;;
2023/09/27 10:36:15;;;;;;;2.6;2.1;;;;;;;23.69;63.97754;941.8586;;;;
2023/09/27 10:38:38;;;;;;;4.5;2.7;;;;;;;24.73;59.00879;941.9313;;;;
2023/09/27 10:41:03;;;;;;;3.1;2.1;;;;;;;25.65;56.71973;941.894;;;;
2023/09/27 10:43:28;;;;;;;3.2;2.3;;;;;;;25.58;56.6748;941.9084;;;;
2023/09/27 10:45:53;;;;;;;4.7;2.6;;;;;;;25.84;56.51953;941.8031;;;;
2023/09/27 10:48:19;;;;;;;4.7;2.8;;;;;;;26.28;55.66406;941.8148;;;;
2023/09/27 10:50:44;;;;;;;3.7;2.2;;;;;;;25.64;58.46777;941.7981;;;;
2023/09/27 10:53:10;;;;;;;4.3;2;;;;;;;25.53;56.96387;941.7947;;;;
2023/09/27 10:57:03;;;;;;;4.1;2;;;;;;;25.77;55.25684;941.7048;;;;
2023/09/27 11:00:14;;;;;;;3.5;2.4;;;;;;;26.17;53.59082;941.6337;;;;
2023/09/27 11:03:24;;;;;;;4.5;2.5;;;;;;;26.27;52.51563;941.5664;;;;
2023/09/27 11:06:34;;;;;;;3.4;1.9;;;;;;;26.11;53.51367;941.5229;;;;
2023/09/27 11:09:44;;;;;;;3.8;2.1;;;;;;;26.24;52.6416;941.4773;;;;
2023/09/27 11:12:54;;;;;;;2;1.8;;;;;;;26.52;52.16504;941.361;;;;
2023/09/27 11:16:15;;;;;;;3;1.9;;;;;;;26.52;53.60938;941.3177;;;;
2023/09/27 11:19:25;;;;;;;3.2;1.9;;;;;;;26.95;52.32324;941.3119;;;;
2023/09/27 11:22:36;;;;;;;3;1.9;;;;;;;27.01;51.92676;941.1646;;;;
2023/09/27 11:25:45;;;;;;;2.5;1.9;;;;;;;26.28;55.60352;941.1497;;;;
2023/09/27 11:28:55;;;;;;;2.9;1.7;;;;;;;26.41;54.14063;941.1174;;;;
2023/09/27 11:32:08;;;;;;;2.1;1.8;;;;;;;26.23;54.07324;941.0471;;;;
2023/09/27 11:35:18;;;;;;;3.2;1.8;;;;;;;26.34;54.27441;941.0162;;;;
2023/09/27 11:38:28;;;;;;;2.1;1.8;;;;;;;25.69;56.62988;940.9114;;;;
2023/09/27 11:41:38;;;;;;;2.1;1.9;;;;;;;25.84;54.8291;940.9171;;;;
2023/09/27 11:44:48;;;;;;;1.9;1.8;;;;;;;25.17;58.08789;940.8392;;;;
2023/09/27 11:48:11;;;;;;;3.1;1.8;;;;;;;26.01;56.26855;940.799;;;;
2023/09/27 11:51:23;;;;;;;3.1;2;;;;;;;25.62;54.86133;940.8059;;;;
2023/09/27 11:53:51;;;;;;;2.5;1.9;;;;;;;25.1;56.34277;940.6718;;;;
2023/09/27 11:56:18;;;;;;;2.3;1.9;;;;;;;25.05;57.36426;940.6586;;;;
2023/09/27 11:58:59;;;;;;;2.1;1.9;;;;;;;25.43;55.22754;940.6376;;;;
2023/09/27 12:01:27;;;;;;;3.3;1.9;;;;;;;25.16;55.09961;940.634;;;;
2023/09/27 12:04:03;;;;;;;2.2;1.7;;;;;;;25.12;55.73242;940.5014;;;;
2023/09/27 12:06:35;;;;;;;2.8;1.9;;;;;;;24.78;56.89258;940.5884;;;;
2023/09/27 12:09:02;;;;;;;4.2;1.8;;;;;;;24.65;58.89355;940.5627;;;;
2023/09/27 12:11:38;;;;;;;1.6;1.5;;;;;;;25.36;55.50195;940.5075;;;;
2023/09/27 12:14:07;;;;;;;2.4;2;;;;;;;25.11;59.35352;940.4448;;;;
2023/09/27 12:16:32;;;;;;;2.2;1.9;;;;;;;25.29;57.87988;940.4241;;;;
2023/09/27 12:19:01;;;;;;;2.8;2;;;;;;;25.03;59.14258;940.3772;;;;
2023/09/27 12:21:37;;;;;;;3.4;2.2;;;;;;;25.16;59.38379;940.3734;;;;
2023/09/27 12:24:05;;;;;;;4.5;2;;;;;;;25.63;57.00098;940.3003;;;;
2023/09/27 12:26:41;;;;;;;2.1;1.9;;;;;;;25.53;56.32617;940.2877;;;;
2023/09/27 12:29:18;;;;;;;2.3;1.9;;;;;;;25.33;57.0459;940.1663;;;;
2023/09/27 12:31:56;;;;;;;2.6;2;;;;;;;24.94;58.56445;940.1739;;;;
2023/09/27 12:34:22;;;;;;;2.6;1.8;;;;;;;25.15;57.4834;940.1177;;;;
2023/09/27 12:36:58;;;;;;;2.9;1.8;;;;;;;25.44;56.48047;940.0639;;;;
2023/09/27 12:39:30;;;;;;;2.2;2;;;;;;;25.03;58.51758;939.9952;;;;
2023/09/27 12:42:06;;;;;;;2.3;1.9;;;;;;;24.89;60.13867;939.9656;;;;
2023/09/27 12:44:38;;;;;;;4.1;2.2;;;;;;;25.29;57.54785;939.9179;;;;
2023/09/27 12:47:11;;;;;;;3;1.8;;;;;;;25.96;54.85645;939.8792;;;;
2023/09/27 12:49:45;;;;;;;3.7;2;;;;;;;25.36;58.3125;939.8431;;;;
2023/09/27 12:52:18;;;;;;;3.5;2.1;;;;;;;25.44;58.91406;939.7547;;;;
2023/09/27 12:54:52;;;;;;;2;1.8;;;;;;;25.23;57.74121;939.7364;;;;
2023/09/27 12:57:22;;;;;;;2.6;1.9;;;;;;;25.56;57.14551;939.6537;;;;
2023/09/27 13:00:08;;;;;;;2.7;2;;;;;;;26.05;55.5752;939.5962;;;;
2023/09/27 13:02:35;;;;;;;2.3;2.1;;;;;;;26.29;54.9209;939.613;;;;
2023/09/27 13:05:03;;;;;;;2.1;1.9;;;;;;;26.44;54.09766;939.5834;;;;
2023/09/27 13:07:31;;;;;;;2.4;2.2;;;;;;;26.55;55.78027;939.5435;;;;
2023/09/27 13:10:08;;;;;;;4;2.1;;;;;;;26.92;54.2373;939.589;;;;
2023/09/27 13:12:36;;;;;;;3.2;2.2;;;;;;;26.88;54.50684;939.5396;;;;
2023/09/27 13:15:06;;;;;;;3.3;2.3;;;;;;;26.93;53.81348;939.4617;;;;
2023/09/27 13:17:42;;;;;;;2.4;1.9;;;;;;;26.01;57.41602;939.432;;;;
2023/09/27 13:20:18;;;;;;;3.1;1.9;;;;;;;26.19;57.2959;939.4171;;;;
2023/09/27 13:22:47;;;;;;;2.8;2.1;;;;;;;25.98;57.70801;939.3233;;;;
2023/09/27 13:25:25;;;;;;;2.7;2.3;;;;;;;25.71;56.55078;939.3588;;;;
2023/09/27 13:27:56;;;;;;;2.4;2.2;;;;;;;25.77;57.37305;939.3192;;;;
2023/09/27 13:30:27;;;;;;;3.3;2;;;;;;;26.13;56.72168;939.2844;;;;
2023/09/27 13:33:02;;;;;;;2.7;1.9;;;;;;;26.17;56.78613;939.2242;;;;
2023/09/27 13:35:26;;;;;;;2.7;2.1;;;;;;;25.58;59.88867;939.2289;;;;
2023/09/27 13:38:03;;;;;;;2.5;2.1;;;;;;;25.9;56.89355;939.2022;;;;
2023/09/27 13:40:43;;;;;;;3.2;2;;;;;;;25.86;57.25488;939.1163;;;;
2023/09/27 13:43:07;;;;;;;3.1;2.3;;;;;;;26.12;57.7373;939.1027;;;;
2023/09/27 13:45:33;;;;;;;3.7;2.3;;;;;;;26.08;58.03906;939.0421;;;;
2023/09/27 13:47:59;;;;;;;2.6;2.3;;;;;;;25.98;57.71973;939.0734;;;;
2023/09/27 13:50:31;;;;;;;2.8;2.1;;;;;;;25.81;58.66699;939.0683;;;;
2023/09/27 13:52:53;;;;;;;3.6;2;;;;;;;25.73;58.75098;939.003;;;;
2023/09/27 13:55:20;;;;;;;2;1.9;;;;;;;25.99;57.92188;938.963;;;;
2023/09/27 13:57:47;;;;;;;2.3;2.1;;;;;;;26.2;57.2041;938.965;;;;
2023/09/27 14:00:13;;;;;;;3.4;2.1;;;;;;;26.14;58.42676;938.9041;;;;
2023/09/27 14:02:49;;;;;;;3.5;1.9;;;;;;;26.27;56.96484;938.8735;;;;
2023/09/27 14:05:18;;;;;;;2.5;2.3;;;;;;;26.36;56.78516;938.9103;;;;
2023/09/27 14:07:46;;;;;;;2.6;2.2;;;;;;;26.29;56.62207;938.9119;;;;
2023/09/27 14:10:14;;;;;;;4.5;2.4;;;;;;;26.27;57.05957;938.9085;;;;
2023/09/27 14:12:42;;;;;;;4.9;2;;;;;;;26.26;56.33496;938.8318;;;;
2023/09/27 14:15:07;;;;;;;2.4;1.7;;;;;;;26.01;58.61035;938.8167;;;;
2023/09/27 14:17:34;;;;;;;2.7;2.3;;;;;;;26.08;57.91016;938.8011;;;;
2023/09/27 14:20:01;;;;;;;3.4;2.2;;;;;;;26.11;57.37012;938.7792;;;;
2023/09/27 14:22:39;;;;;;;3.1;2.1;;;;;;;26.12;57.78516;938.7938;;;;
2023/09/27 14:25:13;;;;;;;3.5;2;;;;;;;25.98;57.64941;938.7601;;;;
2023/09/27 14:27:42;;;;;;;3;2;;;;;;;26.1;57.67578;938.6916;;;;
2023/09/27 14:30:20;;;;;;;3.8;2.1;;;;;;;25.96;58.18945;938.7156;;;;
2023/09/27 14:32:54;;;;;;;2.4;2.2;;;;;;;25.72;58.64258;938.6487;;;;
2023/09/27 14:35:26;;;;;;;2.4;2.1;;;;;;;25.91;58.03125;938.6214;;;;
2023/09/27 14:37:51;;;;;;;2.5;2.2;;;;;;;25.75;59.22656;938.6032;;;;
2023/09/27 14:40:17;;;;;;;4.8;2.1;;;;;;;25.85;58.19922;938.6106;;;;
2023/09/27 14:42:49;;;;;;;2.6;1.9;;;;;;;25.47;59.35449;938.5353;;;;
2023/09/27 14:45:21;;;;;;;3.3;2.1;;;;;;;25.6;59.1123;938.5622;;;;
2023/09/27 14:47:55;;;;;;;2.6;2.4;;;;;;;25.66;58.73145;938.4554;;;;
2023/09/27 14:50:27;;;;;;;2.5;2.3;;;;;;;25.49;60.17188;938.416;;;;
2023/09/27 14:52:52;;;;;;;2.1;1.9;;;;;;;25.51;60.11719;938.4459;;;;
2023/09/27 14:55:18;;;;;;;2.5;2.3;;;;;;;25.53;59.64648;938.4166;;;;
2023/09/27 14:57:43;;;;;;;2.9;2.2;;;;;;;25.59;59.27539;938.3803;;;;
2023/09/27 15:00:08;;;;;;;2.5;2.3;;;;;;;25.49;59.66406;938.3516;;;;
2023/09/27 15:02:36;;;;;;;2.7;2.2;;;;;;;25.57;60.25391;938.3265;;;;
2023/09/27 15:05:03;;;;;;;3.3;2.3;;;;;;;25.56;60.0752;938.2755;;;;
2023/09/27 15:07:37;;;;;;;2.4;2.2;;;;;;;25.45;59.97852;938.2825;;;;
2023/09/27 15:10:00;;;;;;;3.6;2.3;;;;;;;25.47;60.1582;938.3109;;;;
2023/09/27 15:12:26;;;;;;;3.7;2.4;;;;;;;25.35;61.08691;938.2992;;;;
2023/09/27 15:14:55;;;;;;;2.9;2.4;;;;;;;25.23;60.7168;938.261;;;;
2023/09/27 15:17:21;;;;;;;3.1;2.2;;;;;;;25.18;60.96875;938.2622;;;;
2023/09/27 15:19:49;;;;;;;3.3;2.3;;;;;;;25.14;61.75391;938.2335;;;;
2023/09/27 15:22:16;;;;;;;2.1;1.9;;;;;;;25.14;62.33301;938.3072;;;;
2023/09/27 15:24:44;;;;;;;2.7;2;;;;;;;25.07;62.98438;938.3024;;;;
2023/09/27 15:27:09;;;;;;;2.9;2.2;;;;;;;25.08;62.66699;938.3438;;;;
2023/09/27 15:29:34;;;;;;;3.6;2.4;;;;;;;24.97;63.00586;938.3367;;;;
2023/09/27 15:32:05;;;;;;;3.7;2.3;;;;;;;24.69;63.67383;938.3669;;;;
2023/09/27 15:34:35;;;;;;;3.9;2.2;;;;;;;24.39;64.92676;938.3879;;;;
2023/09/27 15:37:08;;;;;;;3.6;2.4;;;;;;;24.23;65.60938;938.3441;;;;
2023/09/27 15:39:33;;;;;;;4.4;2.4;;;;;;;23.83;66.84473;938.3655;;;;
2023/09/27 15:41:59;;;;;;;3.3;2.5;;;;;;;23.65;67.47852;938.3546;;;;
2023/09/27 15:44:32;;;;;;;2.8;2.2;;;;;;;23.81;67.70117;938.3391;;;;
2023/09/27 15:47:03;;;;;;;2.7;2.4;;;;;;;23.67;68.06934;938.3547;;;;
2023/09/27 15:49:39;;;;;;;2.8;2.1;;;;;;;23.38;68.58789;938.3795;;;;
2023/09/27 15:52:06;;;;;;;3.2;2.4;;;;;;;23.34;68.73535;938.3769;;;;
2023/09/27 15:54:41;;;;;;;2.8;2.1;;;;;;;23.35;69.59473;938.3758;;;;
2023/09/27 15:57:10;;;;;;;2.8;2.3;;;;;;;23.06;70.43066;938.3641;;;;
2023/09/27 15:59:38;;;;;;;3.1;2.5;;;;;;;22.98;70.66602;938.3853;;;;
2023/09/27 16:02:17;;;;;;;3.2;2.5;;;;;;;23;70.97266;938.3986;;;;